sensor_id;sensor_type;location;lat;lon;timestamp;temperature;humidity
22153;DHT22;11242;50.536;12.688;2024-02-21T00:01:36;5.00;99.90
22153;DHT22;11242;50.536;12.688;2024-02-21T00:04:01;5.00;99.90
22153;DHT22;11242;50.536;12.688;2024-02-21T00:06:27;5.00;99.90
22153;DHT22;11242;50.536;12.688;2024-02-21T00:08:52;4.90;99.90
22153;DHT22;11242;50.536;12.688;2024-02-21T00:11:18;4.90;99.90
22153;DHT22;11242;50.536;12.688;2024-02-21T00:13:43;4.80;99.90
22153;DHT22;11242;50.536;12.688;2024-02-21T00:16:09;4.70;99.90
22153;DHT22;11242;50.536;12.688;2024-02-21T00:18:36;4.70;99.90
22153;DHT22;11242;50.536;12.688;2024-02-21T00:21:01;4.70;99.90
22153;DHT22;11242;50.536;12.688;2024-02-21T00:23:27;4.70;99.90
22153;DHT22;11242;50.536;12.688;2024-02-21T00:25:54;4.70;99.90
22153;DHT22;11242;50.536;12.688;2024-02-21T00:28:19;4.70;99.90
22153;DHT22;11242;50.536;12.688;2024-02-21T00:30:45;4.70;99.90
22153;DHT22;11242;50.536;12.688;2024-02-21T00:33:13;4.70;99.90
22153;DHT22;11242;50.536;12.688;2024-02-21T00:35:38;4.60;99.90
22153;DHT22;11242;50.536;12.688;2024-02-21T00:38:04;4.60;99.90
22153;DHT22;11242;50.536;12.688;2024-02-21T00:40:29;4.60;99.90
22153;DHT22;11242;50.536;12.688;2024-02-21T00:42:55;4.60;99.90
22153;DHT22;11242;50.536;12.688;2024-02-21T00:45:21;4.50;99.90
22153;DHT22;11242;50.536;12.688;2024-02-21T00:47:46;4.50;99.90
22153;DHT22;11242;50.536;12.688;2024-02-21T00:50:12;4.50;99.90
22153;DHT22;11242;50.536;12.688;2024-02-21T00:52:37;4.50;99.90
22153;DHT22;11242;50.536;12.688;2024-02-21T00:55:04;4.50;99.90
22153;DHT22;11242;50.536;12.688;2024-02-21T00:57:30;4.60;99.90
22153;DHT22;11242;50.536;12.688;2024-02-21T00:59:55;4.60;99.90
22153;DHT22;11242;50.536;12.688;2024-02-21T01:02:21;4.60;99.90
22153;DHT22;11242;50.536;12.688;2024-02-21T01:04:46;4.70;99.90
22153;DHT22;11242;50.536;12.688;2024-02-21T01:07:12;4.70;99.90
22153;DHT22;11242;50.536;12.688;2024-02-21T01:09:37;4.80;99.90
22153;DHT22;11242;50.536;12.688;2024-02-21T01:12:03;4.80;99.90
22153;DHT22;11242;50.536;12.688;2024-02-21T01:14:28;4.80;99.90
22153;DHT22;11242;50.536;12.688;2024-02-21T01:16:54;4.80;99.90
22153;DHT22;11242;50.536;12.688;2024-02-21T01:19:19;4.80;99.90
22153;DHT22;11242;50.536;12.688;2024-02-21T01:21:45;4.80;99.90
22153;DHT22;11242;50.536;12.688;2024-02-21T01:24:11;4.80;99.90
22153;DHT22;11242;50.536;12.688;2024-02-21T01:26:36;4.70;99.90
22153;DHT22;11242;50.536;12.688;2024-02-21T01:29:02;4.60;99.90
22153;DHT22;11242;50.536;12.688;2024-02-21T01:31:27;4.60;99.90
22153;DHT22;11242;50.536;12.688;2024-02-21T01:33:53;4.50;99.90
22153;DHT22;11242;50.536;12.688;2024-02-21T01:36:18;4.50;99.90
22153;DHT22;11242;50.536;12.688;2024-02-21T01:38:44;4.40;99.90
22153;DHT22;11242;50.536;12.688;2024-02-21T01:41:09;4.40;99.90
22153;DHT22;11242;50.536;12.688;2024-02-21T01:43:35;4.40;99.90
22153;DHT22;11242;50.536;12.688;2024-02-21T01:46:00;4.30;99.90
22153;DHT22;11242;50.536;12.688;2024-02-21T01:48:26;4.30;99.90
22153;DHT22;11242;50.536;12.688;2024-02-21T01:50:53;4.30;99.90
22153;DHT22;11242;50.536;12.688;2024-02-21T01:53:23;4.40;99.90
22153;DHT22;11242;50.536;12.688;2024-02-21T01:55:49;4.50;99.90
22153;DHT22;11242;50.536;12.688;2024-02-21T01:58:18;4.40;99.90
22153;DHT22;11242;50.536;12.688;2024-02-21T02:00:46;4.40;99.90
22153;DHT22;11242;50.536;12.688;2024-02-21T02:03:13;4.50;99.90
22153;DHT22;11242;50.536;12.688;2024-02-21T02:05:46;4.50;99.90
22153;DHT22;11242;50.536;12.688;2024-02-21T02:08:15;4.60;99.90
22153;DHT22;11242;50.536;12.688;2024-02-21T02:10:42;4.60;99.90
22153;DHT22;11242;50.536;12.688;2024-02-21T02:13:08;4.70;99.90
22153;DHT22;11242;50.536;12.688;2024-02-21T02:15:46;4.70;99.90
22153;DHT22;11242;50.536;12.688;2024-02-21T02:18:13;4.80;99.90
22153;DHT22;11242;50.536;12.688;2024-02-21T02:20:39;4.90;99.90
22153;DHT22;11242;50.536;12.688;2024-02-21T02:23:12;4.90;99.90
22153;DHT22;11242;50.536;12.688;2024-02-21T02:25:39;4.90;99.90
22153;DHT22;11242;50.536;12.688;2024-02-21T02:28:08;4.90;99.90
22153;DHT22;11242;50.536;12.688;2024-02-21T02:30:37;4.90;99.90
22153;DHT22;11242;50.536;12.688;2024-02-21T02:33:04;4.90;99.90
22153;DHT22;11242;50.536;12.688;2024-02-21T02:35:29;4.90;99.90
22153;DHT22;11242;50.536;12.688;2024-02-21T02:37:55;4.90;99.90
22153;DHT22;11242;50.536;12.688;2024-02-21T02:40:21;4.90;99.90
22153;DHT22;11242;50.536;12.688;2024-02-21T02:42:46;4.90;99.90
22153;DHT22;11242;50.536;12.688;2024-02-21T02:45:14;4.90;99.90
22153;DHT22;11242;50.536;12.688;2024-02-21T02:47:40;4.90;99.90
22153;DHT22;11242;50.536;12.688;2024-02-21T02:50:06;4.90;99.90
22153;DHT22;11242;50.536;12.688;2024-02-21T02:52:32;4.90;99.90
22153;DHT22;11242;50.536;12.688;2024-02-21T02:54:58;4.90;99.90
22153;DHT22;11242;50.536;12.688;2024-02-21T02:57:23;4.80;99.90
22153;DHT22;11242;50.536;12.688;2024-02-21T02:59:50;4.90;99.90
22153;DHT22;11242;50.536;12.688;2024-02-21T03:02:16;4.80;99.90
22153;DHT22;11242;50.536;12.688;2024-02-21T03:04:41;4.80;99.90
22153;DHT22;11242;50.536;12.688;2024-02-21T03:07:07;4.80;99.90
22153;DHT22;11242;50.536;12.688;2024-02-21T03:09:32;4.80;99.90
22153;DHT22;11242;50.536;12.688;2024-02-21T03:11:58;4.80;99.90
22153;DHT22;11242;50.536;12.688;2024-02-21T03:14:28;4.80;99.90
22153;DHT22;11242;50.536;12.688;2024-02-21T03:16:54;4.80;99.90
22153;DHT22;11242;50.536;12.688;2024-02-21T03:19:20;4.80;99.90
22153;DHT22;11242;50.536;12.688;2024-02-21T03:21:45;4.80;99.90
22153;DHT22;11242;50.536;12.688;2024-02-21T03:24:11;4.80;99.90
22153;DHT22;11242;50.536;12.688;2024-02-21T03:26:36;4.80;99.90
22153;DHT22;11242;50.536;12.688;2024-02-21T03:29:03;4.80;99.90
22153;DHT22;11242;50.536;12.688;2024-02-21T03:31:29;4.80;99.90
22153;DHT22;11242;50.536;12.688;2024-02-21T03:33:54;4.80;99.90
22153;DHT22;11242;50.536;12.688;2024-02-21T03:36:20;4.90;99.90
22153;DHT22;11242;50.536;12.688;2024-02-21T03:38:45;4.80;99.90
22153;DHT22;11242;50.536;12.688;2024-02-21T03:41:11;4.80;99.90
22153;DHT22;11242;50.536;12.688;2024-02-21T03:43:39;4.80;99.90
22153;DHT22;11242;50.536;12.688;2024-02-21T03:46:06;4.80;99.90
22153;DHT22;11242;50.536;12.688;2024-02-21T03:48:31;4.80;99.90
22153;DHT22;11242;50.536;12.688;2024-02-21T03:50:58;4.80;99.90
22153;DHT22;11242;50.536;12.688;2024-02-21T03:53:23;4.80;99.90
22153;DHT22;11242;50.536;12.688;2024-02-21T03:55:49;4.90;99.90
22153;DHT22;11242;50.536;12.688;2024-02-21T03:58:14;4.90;99.90
22153;DHT22;11242;50.536;12.688;2024-02-21T04:00:40;5.00;99.90
22153;DHT22;11242;50.536;12.688;2024-02-21T04:03:06;5.10;99.90
22153;DHT22;11242;50.536;12.688;2024-02-21T04:05:32;5.10;99.90
22153;DHT22;11242;50.536;12.688;2024-02-21T04:07:57;5.10;99.90
22153;DHT22;11242;50.536;12.688;2024-02-21T04:10:24;5.10;99.90
22153;DHT22;11242;50.536;12.688;2024-02-21T04:12:49;5.10;99.90
22153;DHT22;11242;50.536;12.688;2024-02-21T04:15:16;5.10;99.90
22153;DHT22;11242;50.536;12.688;2024-02-21T04:17:41;5.20;99.90
22153;DHT22;11242;50.536;12.688;2024-02-21T04:20:14;5.20;99.90
22153;DHT22;11242;50.536;12.688;2024-02-21T04:22:40;5.20;99.90
22153;DHT22;11242;50.536;12.688;2024-02-21T04:25:06;5.20;99.90
22153;DHT22;11242;50.536;12.688;2024-02-21T04:27:31;5.20;99.90
22153;DHT22;11242;50.536;12.688;2024-02-21T04:29:57;5.20;99.90
22153;DHT22;11242;50.536;12.688;2024-02-21T04:32:22;5.20;99.90
22153;DHT22;11242;50.536;12.688;2024-02-21T04:34:48;5.20;99.90
22153;DHT22;11242;50.536;12.688;2024-02-21T04:37:13;5.10;99.90
22153;DHT22;11242;50.536;12.688;2024-02-21T04:39:39;5.10;99.90
22153;DHT22;11242;50.536;12.688;2024-02-21T04:42:05;5.20;99.90
22153;DHT22;11242;50.536;12.688;2024-02-21T04:44:30;5.10;99.90
22153;DHT22;11242;50.536;12.688;2024-02-21T04:46:56;5.10;99.90
22153;DHT22;11242;50.536;12.688;2024-02-21T04:49:21;5.10;99.90
22153;DHT22;11242;50.536;12.688;2024-02-21T04:51:47;5.10;99.90
22153;DHT22;11242;50.536;12.688;2024-02-21T04:54:12;5.10;99.90
22153;DHT22;11242;50.536;12.688;2024-02-21T04:56:38;5.10;99.90
22153;DHT22;11242;50.536;12.688;2024-02-21T04:59:03;5.00;99.90
22153;DHT22;11242;50.536;12.688;2024-02-21T05:01:29;5.10;99.90
22153;DHT22;11242;50.536;12.688;2024-02-21T05:03:55;5.10;99.90
22153;DHT22;11242;50.536;12.688;2024-02-21T05:06:20;5.10;99.90
22153;DHT22;11242;50.536;12.688;2024-02-21T05:08:47;5.10;99.90
22153;DHT22;11242;50.536;12.688;2024-02-21T05:11:13;5.10;99.90
22153;DHT22;11242;50.536;12.688;2024-02-21T05:13:38;5.10;99.90
22153;DHT22;11242;50.536;12.688;2024-02-21T05:16:04;5.10;99.90
22153;DHT22;11242;50.536;12.688;2024-02-21T05:18:30;5.10;99.90
22153;DHT22;11242;50.536;12.688;2024-02-21T05:20:55;5.10;99.90
22153;DHT22;11242;50.536;12.688;2024-02-21T05:23:21;5.00;99.90
22153;DHT22;11242;50.536;12.688;2024-02-21T05:25:46;5.00;99.90
22153;DHT22;11242;50.536;12.688;2024-02-21T05:28:12;4.90;99.90
22153;DHT22;11242;50.536;12.688;2024-02-21T05:30:37;4.90;99.90
22153;DHT22;11242;50.536;12.688;2024-02-21T05:33:06;4.90;99.90
22153;DHT22;11242;50.536;12.688;2024-02-21T05:35:32;4.90;99.90
22153;DHT22;11242;50.536;12.688;2024-02-21T05:37:58;4.80;99.90
22153;DHT22;11242;50.536;12.688;2024-02-21T05:40:24;4.80;99.90
22153;DHT22;11242;50.536;12.688;2024-02-21T05:42:51;4.80;99.90
22153;DHT22;11242;50.536;12.688;2024-02-21T05:45:17;4.80;99.90
22153;DHT22;11242;50.536;12.688;2024-02-21T05:47:43;4.80;99.90
22153;DHT22;11242;50.536;12.688;2024-02-21T05:50:09;4.80;99.90
22153;DHT22;11242;50.536;12.688;2024-02-21T05:52:35;4.90;99.90
22153;DHT22;11242;50.536;12.688;2024-02-21T05:55:00;4.90;99.90
22153;DHT22;11242;50.536;12.688;2024-02-21T05:57:26;5.00;99.90
22153;DHT22;11242;50.536;12.688;2024-02-21T05:59:51;5.00;99.90
22153;DHT22;11242;50.536;12.688;2024-02-21T06:02:17;5.00;99.90
22153;DHT22;11242;50.536;12.688;2024-02-21T06:04:43;5.00;99.90
22153;DHT22;11242;50.536;12.688;2024-02-21T06:07:09;5.00;99.90
22153;DHT22;11242;50.536;12.688;2024-02-21T06:09:35;5.00;99.90
22153;DHT22;11242;50.536;12.688;2024-02-21T06:12:00;5.00;99.90
22153;DHT22;11242;50.536;12.688;2024-02-21T06:14:26;4.90;99.90
22153;DHT22;11242;50.536;12.688;2024-02-21T06:16:52;4.90;99.90
22153;DHT22;11242;50.536;12.688;2024-02-21T06:19:17;4.90;99.90
22153;DHT22;11242;50.536;12.688;2024-02-21T06:21:43;4.90;99.90
22153;DHT22;11242;50.536;12.688;2024-02-21T06:24:08;4.90;99.90
22153;DHT22;11242;50.536;12.688;2024-02-21T06:26:34;4.90;99.90
22153;DHT22;11242;50.536;12.688;2024-02-21T06:29:00;4.90;99.90
22153;DHT22;11242;50.536;12.688;2024-02-21T06:31:26;4.80;99.90
22153;DHT22;11242;50.536;12.688;2024-02-21T06:33:52;4.80;99.90
22153;DHT22;11242;50.536;12.688;2024-02-21T06:36:17;4.70;99.90
22153;DHT22;11242;50.536;12.688;2024-02-21T06:38:43;4.70;99.90
22153;DHT22;11242;50.536;12.688;2024-02-21T06:41:18;4.70;99.90
22153;DHT22;11242;50.536;12.688;2024-02-21T06:43:45;4.80;99.90
22153;DHT22;11242;50.536;12.688;2024-02-21T06:46:11;4.80;99.90
22153;DHT22;11242;50.536;12.688;2024-02-21T06:48:37;4.80;99.90
22153;DHT22;11242;50.536;12.688;2024-02-21T06:51:03;4.90;99.90
22153;DHT22;11242;50.536;12.688;2024-02-21T06:53:29;5.00;99.90
22153;DHT22;11242;50.536;12.688;2024-02-21T06:55:54;5.00;99.90
22153;DHT22;11242;50.536;12.688;2024-02-21T06:58:20;5.10;99.90
22153;DHT22;11242;50.536;12.688;2024-02-21T07:00:46;5.10;99.90
22153;DHT22;11242;50.536;12.688;2024-02-21T07:03:12;5.20;99.90
22153;DHT22;11242;50.536;12.688;2024-02-21T07:05:37;5.30;99.90
22153;DHT22;11242;50.536;12.688;2024-02-21T07:08:03;5.40;99.90
22153;DHT22;11242;50.536;12.688;2024-02-21T07:10:29;5.60;99.90
22153;DHT22;11242;50.536;12.688;2024-02-21T07:12:55;5.70;99.90
22153;DHT22;11242;50.536;12.688;2024-02-21T07:15:20;5.90;99.90
22153;DHT22;11242;50.536;12.688;2024-02-21T07:17:46;6.10;99.90
22153;DHT22;11242;50.536;12.688;2024-02-21T07:20:12;6.20;99.90
22153;DHT22;11242;50.536;12.688;2024-02-21T07:22:37;6.40;99.90
22153;DHT22;11242;50.536;12.688;2024-02-21T07:25:03;6.80;99.90
22153;DHT22;11242;50.536;12.688;2024-02-21T07:27:29;6.90;99.90
22153;DHT22;11242;50.536;12.688;2024-02-21T07:29:57;6.70;99.90
22153;DHT22;11242;50.536;12.688;2024-02-21T07:32:22;6.60;99.90
22153;DHT22;11242;50.536;12.688;2024-02-21T07:34:48;6.70;99.90
22153;DHT22;11242;50.536;12.688;2024-02-21T07:37:13;6.70;99.90
22153;DHT22;11242;50.536;12.688;2024-02-21T07:39:39;6.60;99.90
22153;DHT22;11242;50.536;12.688;2024-02-21T07:42:05;6.60;99.90
22153;DHT22;11242;50.536;12.688;2024-02-21T07:44:31;6.60;99.90
22153;DHT22;11242;50.536;12.688;2024-02-21T07:46:57;6.60;99.90
22153;DHT22;11242;50.536;12.688;2024-02-21T07:49:23;6.70;99.90
22153;DHT22;11242;50.536;12.688;2024-02-21T07:51:48;6.70;99.90
22153;DHT22;11242;50.536;12.688;2024-02-21T07:54:14;6.70;99.90
22153;DHT22;11242;50.536;12.688;2024-02-21T07:56:40;6.70;99.90
22153;DHT22;11242;50.536;12.688;2024-02-21T07:59:05;6.80;99.90
22153;DHT22;11242;50.536;12.688;2024-02-21T08:01:31;6.80;99.90
22153;DHT22;11242;50.536;12.688;2024-02-21T08:03:56;6.80;99.90
22153;DHT22;11242;50.536;12.688;2024-02-21T08:06:22;6.80;99.90
22153;DHT22;11242;50.536;12.688;2024-02-21T08:08:47;6.90;99.90
22153;DHT22;11242;50.536;12.688;2024-02-21T08:11:13;7.00;99.90
22153;DHT22;11242;50.536;12.688;2024-02-21T08:13:39;7.10;99.90
22153;DHT22;11242;50.536;12.688;2024-02-21T08:16:05;7.00;99.90
22153;DHT22;11242;50.536;12.688;2024-02-21T08:18:30;6.80;99.90
22153;DHT22;11242;50.536;12.688;2024-02-21T08:20:56;6.70;99.90
22153;DHT22;11242;50.536;12.688;2024-02-21T08:23:23;6.70;99.90
22153;DHT22;11242;50.536;12.688;2024-02-21T08:25:49;7.50;99.90
22153;DHT22;11242;50.536;12.688;2024-02-21T08:28:15;9.30;99.90
22153;DHT22;11242;50.536;12.688;2024-02-21T08:30:40;10.90;99.90
22153;DHT22;11242;50.536;12.688;2024-02-21T08:33:09;11.90;99.90
22153;DHT22;11242;50.536;12.688;2024-02-21T08:35:35;11.50;99.90
22153;DHT22;11242;50.536;12.688;2024-02-21T08:38:00;11.60;99.90
22153;DHT22;11242;50.536;12.688;2024-02-21T08:40:26;11.70;99.90
22153;DHT22;11242;50.536;12.688;2024-02-21T08:42:51;11.50;99.90
22153;DHT22;11242;50.536;12.688;2024-02-21T08:45:19;11.30;99.90
22153;DHT22;11242;50.536;12.688;2024-02-21T08:47:44;11.20;99.90
22153;DHT22;11242;50.536;12.688;2024-02-21T08:50:10;11.40;99.90
22153;DHT22;11242;50.536;12.688;2024-02-21T08:52:36;11.70;99.90
22153;DHT22;11242;50.536;12.688;2024-02-21T08:55:01;12.10;99.90
22153;DHT22;11242;50.536;12.688;2024-02-21T08:57:27;12.40;99.90
22153;DHT22;11242;50.536;12.688;2024-02-21T08:59:53;11.50;99.90
22153;DHT22;11242;50.536;12.688;2024-02-21T09:02:19;10.70;99.90
22153;DHT22;11242;50.536;12.688;2024-02-21T09:04:44;10.50;99.90
22153;DHT22;11242;50.536;12.688;2024-02-21T09:07:11;11.40;99.90
22153;DHT22;11242;50.536;12.688;2024-02-21T09:09:37;10.60;99.90
22153;DHT22;11242;50.536;12.688;2024-02-21T09:12:05;10.40;99.90
22153;DHT22;11242;50.536;12.688;2024-02-21T09:14:32;9.90;99.90
22153;DHT22;11242;50.536;12.688;2024-02-21T09:16:58;9.30;99.90
22153;DHT22;11242;50.536;12.688;2024-02-21T09:19:23;9.00;99.90
22153;DHT22;11242;50.536;12.688;2024-02-21T09:21:49;9.00;99.90
22153;DHT22;11242;50.536;12.688;2024-02-21T09:24:14;9.50;99.90
22153;DHT22;11242;50.536;12.688;2024-02-21T09:26:40;10.70;99.90
22153;DHT22;11242;50.536;12.688;2024-02-21T09:29:05;10.40;99.90
22153;DHT22;11242;50.536;12.688;2024-02-21T09:31:31;9.80;99.90
22153;DHT22;11242;50.536;12.688;2024-02-21T09:33:57;9.40;99.90
22153;DHT22;11242;50.536;12.688;2024-02-21T09:36:23;9.40;99.90
22153;DHT22;11242;50.536;12.688;2024-02-21T09:38:48;9.20;99.90
22153;DHT22;11242;50.536;12.688;2024-02-21T09:43:45;9.10;99.90
22153;DHT22;11242;50.536;12.688;2024-02-21T09:46:18;9.00;99.90
22153;DHT22;11242;50.536;12.688;2024-02-21T09:49:04;9.10;99.90
22153;DHT22;11242;50.536;12.688;2024-02-21T09:51:36;9.40;99.90
22153;DHT22;11242;50.536;12.688;2024-02-21T09:54:04;9.80;99.90
22153;DHT22;11242;50.536;12.688;2024-02-21T09:56:30;9.50;99.90
22153;DHT22;11242;50.536;12.688;2024-02-21T09:58:56;9.40;99.90
22153;DHT22;11242;50.536;12.688;2024-02-21T10:01:22;9.10;99.90
22153;DHT22;11242;50.536;12.688;2024-02-21T10:03:48;8.90;99.90
22153;DHT22;11242;50.536;12.688;2024-02-21T10:06:13;8.90;99.90
22153;DHT22;11242;50.536;12.688;2024-02-21T10:08:39;9.20;99.90
22153;DHT22;11242;50.536;12.688;2024-02-21T10:11:04;9.40;99.90
22153;DHT22;11242;50.536;12.688;2024-02-21T10:13:30;9.20;99.90
22153;DHT22;11242;50.536;12.688;2024-02-21T10:16:07;9.10;99.90
22153;DHT22;11242;50.536;12.688;2024-02-21T10:18:34;8.80;99.90
22153;DHT22;11242;50.536;12.688;2024-02-21T10:21:06;8.50;99.90
22153;DHT22;11242;50.536;12.688;2024-02-21T10:23:51;8.40;99.90
22153;DHT22;11242;50.536;12.688;2024-02-21T10:26:18;8.50;99.90
22153;DHT22;11242;50.536;12.688;2024-02-21T10:28:44;8.50;99.90
22153;DHT22;11242;50.536;12.688;2024-02-21T10:31:11;8.40;99.90
22153;DHT22;11242;50.536;12.688;2024-02-21T10:34:02;8.30;99.90
22153;DHT22;11242;50.536;12.688;2024-02-21T10:36:28;8.50;99.90
22153;DHT22;11242;50.536;12.688;2024-02-21T10:38:54;8.60;99.90
22153;DHT22;11242;50.536;12.688;2024-02-21T10:41:20;8.80;99.90
22153;DHT22;11242;50.536;12.688;2024-02-21T10:43:51;8.90;99.90
22153;DHT22;11242;50.536;12.688;2024-02-21T10:46:22;8.80;99.90
22153;DHT22;11242;50.536;12.688;2024-02-21T10:48:52;8.80;99.90
22153;DHT22;11242;50.536;12.688;2024-02-21T10:51:20;8.80;99.90
22153;DHT22;11242;50.536;12.688;2024-02-21T10:56:46;8.90;99.90
22153;DHT22;11242;50.536;12.688;2024-02-21T10:59:13;9.00;99.90
22153;DHT22;11242;50.536;12.688;2024-02-21T11:01:39;9.00;99.90
22153;DHT22;11242;50.536;12.688;2024-02-21T11:04:06;9.20;99.90
22153;DHT22;11242;50.536;12.688;2024-02-21T11:06:33;9.20;99.90
22153;DHT22;11242;50.536;12.688;2024-02-21T11:09:07;9.20;99.90
22153;DHT22;11242;50.536;12.688;2024-02-21T11:11:37;9.30;99.90
22153;DHT22;11242;50.536;12.688;2024-02-21T11:16:38;9.20;99.90
22153;DHT22;11242;50.536;12.688;2024-02-21T11:19:30;9.30;99.90
22153;DHT22;11242;50.536;12.688;2024-02-21T11:21:57;9.30;99.90
22153;DHT22;11242;50.536;12.688;2024-02-21T11:24:33;9.40;99.90
22153;DHT22;11242;50.536;12.688;2024-02-21T11:27:33;9.40;99.90
22153;DHT22;11242;50.536;12.688;2024-02-21T11:29:59;9.50;99.90
22153;DHT22;11242;50.536;12.688;2024-02-21T11:32:25;9.50;99.90
22153;DHT22;11242;50.536;12.688;2024-02-21T11:34:55;9.60;99.90
22153;DHT22;11242;50.536;12.688;2024-02-21T11:37:20;9.60;99.90
22153;DHT22;11242;50.536;12.688;2024-02-21T11:39:46;9.70;99.90
22153;DHT22;11242;50.536;12.688;2024-02-21T11:42:12;9.80;99.90
22153;DHT22;11242;50.536;12.688;2024-02-21T11:44:38;9.90;99.90
22153;DHT22;11242;50.536;12.688;2024-02-21T11:47:05;10.00;99.90
22153;DHT22;11242;50.536;12.688;2024-02-21T11:49:36;10.10;99.90
22153;DHT22;11242;50.536;12.688;2024-02-21T11:52:03;10.20;99.90
22153;DHT22;11242;50.536;12.688;2024-02-21T11:54:33;10.20;99.90
22153;DHT22;11242;50.536;12.688;2024-02-21T11:56:59;10.10;99.90
22153;DHT22;11242;50.536;12.688;2024-02-21T11:59:24;10.20;99.90
22153;DHT22;11242;50.536;12.688;2024-02-21T12:01:50;10.30;99.90
22153;DHT22;11242;50.536;12.688;2024-02-21T12:04:18;10.50;99.90
22153;DHT22;11242;50.536;12.688;2024-02-21T12:06:45;10.50;99.90
22153;DHT22;11242;50.536;12.688;2024-02-21T12:09:15;10.50;99.90
22153;DHT22;11242;50.536;12.688;2024-02-21T12:11:41;10.50;99.90
22153;DHT22;11242;50.536;12.688;2024-02-21T12:14:07;10.40;99.90
22153;DHT22;11242;50.536;12.688;2024-02-21T12:16:34;10.60;99.90
22153;DHT22;11242;50.536;12.688;2024-02-21T12:19:01;10.50;99.90
22153;DHT22;11242;50.536;12.688;2024-02-21T12:21:33;10.60;99.90
22153;DHT22;11242;50.536;12.688;2024-02-21T12:24:00;10.60;99.90
22153;DHT22;11242;50.536;12.688;2024-02-21T12:26:25;10.60;99.90
22153;DHT22;11242;50.536;12.688;2024-02-21T12:28:53;10.70;99.90
22153;DHT22;11242;50.536;12.688;2024-02-21T12:31:18;10.80;99.90
22153;DHT22;11242;50.536;12.688;2024-02-21T12:33:44;10.70;99.90
22153;DHT22;11242;50.536;12.688;2024-02-21T12:36:09;10.70;99.90
22153;DHT22;11242;50.536;12.688;2024-02-21T12:38:36;10.70;99.90
22153;DHT22;11242;50.536;12.688;2024-02-21T12:41:02;10.80;99.90
22153;DHT22;11242;50.536;12.688;2024-02-21T12:43:28;10.80;99.90
22153;DHT22;11242;50.536;12.688;2024-02-21T12:45:54;10.80;99.90
22153;DHT22;11242;50.536;12.688;2024-02-21T12:48:19;10.90;99.90
22153;DHT22;11242;50.536;12.688;2024-02-21T12:50:49;11.00;97.80
22153;DHT22;11242;50.536;12.688;2024-02-21T12:53:17;11.00;97.20
22153;DHT22;11242;50.536;12.688;2024-02-21T12:55:44;10.90;98.30
22153;DHT22;11242;50.536;12.688;2024-02-21T12:58:10;10.80;98.20
22153;DHT22;11242;50.536;12.688;2024-02-21T13:00:35;10.80;97.10
22153;DHT22;11242;50.536;12.688;2024-02-21T13:03:01;10.80;95.70
22153;DHT22;11242;50.536;12.688;2024-02-21T13:05:28;10.90;96.40
22153;DHT22;11242;50.536;12.688;2024-02-21T13:07:53;10.80;96.10
22153;DHT22;11242;50.536;12.688;2024-02-21T13:10:19;10.80;96.60
22153;DHT22;11242;50.536;12.688;2024-02-21T13:12:45;10.70;97.00
22153;DHT22;11242;50.536;12.688;2024-02-21T13:15:10;10.80;97.00
22153;DHT22;11242;50.536;12.688;2024-02-21T13:17:37;10.80;96.20
22153;DHT22;11242;50.536;12.688;2024-02-21T13:20:03;10.80;96.30
22153;DHT22;11242;50.536;12.688;2024-02-21T13:22:29;10.70;96.40
22153;DHT22;11242;50.536;12.688;2024-02-21T13:24:54;10.60;96.30
22153;DHT22;11242;50.536;12.688;2024-02-21T13:27:20;10.60;96.80
22153;DHT22;11242;50.536;12.688;2024-02-21T13:29:45;10.60;96.80
22153;DHT22;11242;50.536;12.688;2024-02-21T13:32:11;10.60;97.10
22153;DHT22;11242;50.536;12.688;2024-02-21T13:34:36;10.60;97.10
22153;DHT22;11242;50.536;12.688;2024-02-21T13:37:02;10.50;96.80
22153;DHT22;11242;50.536;12.688;2024-02-21T13:39:29;10.60;96.70
22153;DHT22;11242;50.536;12.688;2024-02-21T13:41:55;10.60;95.20
22153;DHT22;11242;50.536;12.688;2024-02-21T13:44:21;10.50;95.00
22153;DHT22;11242;50.536;12.688;2024-02-21T13:46:46;10.50;94.80
22153;DHT22;11242;50.536;12.688;2024-02-21T13:49:12;10.40;94.70
22153;DHT22;11242;50.536;12.688;2024-02-21T13:51:37;10.40;95.00
22153;DHT22;11242;50.536;12.688;2024-02-21T13:54:04;10.30;93.80
22153;DHT22;11242;50.536;12.688;2024-02-21T13:56:30;10.40;94.50
22153;DHT22;11242;50.536;12.688;2024-02-21T13:58:57;10.50;94.50
22153;DHT22;11242;50.536;12.688;2024-02-21T14:01:23;10.30;92.70
22153;DHT22;11242;50.536;12.688;2024-02-21T14:03:48;10.40;93.50
22153;DHT22;11242;50.536;12.688;2024-02-21T14:06:14;10.40;94.00
22153;DHT22;11242;50.536;12.688;2024-02-21T14:08:39;10.50;94.10
22153;DHT22;11242;50.536;12.688;2024-02-21T14:11:06;10.50;94.10
22153;DHT22;11242;50.536;12.688;2024-02-21T14:13:32;10.40;94.60
22153;DHT22;11242;50.536;12.688;2024-02-21T14:15:57;10.30;94.00
22153;DHT22;11242;50.536;12.688;2024-02-21T14:18:23;10.30;93.60
22153;DHT22;11242;50.536;12.688;2024-02-21T14:20:48;10.20;94.30
22153;DHT22;11242;50.536;12.688;2024-02-21T14:23:14;10.10;94.80
22153;DHT22;11242;50.536;12.688;2024-02-21T14:25:40;10.20;94.70
22153;DHT22;11242;50.536;12.688;2024-02-21T14:28:07;10.10;94.10
22153;DHT22;11242;50.536;12.688;2024-02-21T14:30:34;10.10;94.50
22153;DHT22;11242;50.536;12.688;2024-02-21T14:33:00;10.00;95.00
22153;DHT22;11242;50.536;12.688;2024-02-21T14:35:25;10.00;94.90
22153;DHT22;11242;50.536;12.688;2024-02-21T14:37:51;9.90;94.70
22153;DHT22;11242;50.536;12.688;2024-02-21T14:40:18;9.80;95.30
22153;DHT22;11242;50.536;12.688;2024-02-21T14:42:45;9.70;95.60
22153;DHT22;11242;50.536;12.688;2024-02-21T14:45:11;9.60;95.70
22153;DHT22;11242;50.536;12.688;2024-02-21T14:47:37;9.50;95.30
22153;DHT22;11242;50.536;12.688;2024-02-21T14:50:03;9.40;95.70
22153;DHT22;11242;50.536;12.688;2024-02-21T14:52:30;9.30;95.90
22153;DHT22;11242;50.536;12.688;2024-02-21T14:54:56;9.30;96.10
22153;DHT22;11242;50.536;12.688;2024-02-21T14:57:22;9.20;96.70
22153;DHT22;11242;50.536;12.688;2024-02-21T14:59:47;9.20;96.80
22153;DHT22;11242;50.536;12.688;2024-02-21T15:02:22;9.20;96.90
22153;DHT22;11242;50.536;12.688;2024-02-21T15:04:48;9.20;96.80
22153;DHT22;11242;50.536;12.688;2024-02-21T15:07:14;9.30;96.90
22153;DHT22;11242;50.536;12.688;2024-02-21T15:09:39;9.40;97.10
22153;DHT22;11242;50.536;12.688;2024-02-21T15:12:05;9.40;96.80
22153;DHT22;11242;50.536;12.688;2024-02-21T15:14:31;9.30;96.90
22153;DHT22;11242;50.536;12.688;2024-02-21T15:16:57;9.30;97.40
22153;DHT22;11242;50.536;12.688;2024-02-21T15:19:22;9.20;96.60
22153;DHT22;11242;50.536;12.688;2024-02-21T15:21:48;9.20;97.00
22153;DHT22;11242;50.536;12.688;2024-02-21T15:24:13;9.20;96.70
22153;DHT22;11242;50.536;12.688;2024-02-21T15:26:39;9.20;96.80
22153;DHT22;11242;50.536;12.688;2024-02-21T15:29:04;9.20;96.00
22153;DHT22;11242;50.536;12.688;2024-02-21T15:31:30;9.20;95.20